Time;durP1;ratioP1;P1;durP2;ratioP2;P2;SDS_P1;SDS_P2;PMS_P1;PMS_P2;Temp;Humidity;BMP_temperature;BMP_pressure;BME280_temperature;BME280_humidity;BME280_pressure;Samples;Min_cycle;Max_cycle;Signal;HPM_P1;HPM_P2
2020/12/02 00:00:15;;;;;;;93.62;41.15;;;;;;;0.03;78.28;101283.37;1682758;84;21199;-71
2020/12/02 00:03:11;;;;;;;106.55;45.67;;;;;;;0.01;78.33;101288.68;1676034;83;21168;-71
2020/12/02 00:05:43;;;;;;;111.68;48.45;;;;;;;0.02;78.34;101287.76;1694951;83;21652;-71
2020/12/02 00:08:14;;;;;;;90.77;42.03;;;;;;;0.00;78.36;101282.58;1695123;83;21257;-71
2020/12/02 00:10:40;;;;;;;;;;;;;;;-0.01;78.42;101283.53;1712819;82;21223;-71
2020/12/02 00:13:12;;;;;;;87.57;40.98;;;;;;;-0.03;78.43;101285.38;1710230;83;20306;-71
2020/12/02 00:15:39;;;;;;;96.55;39.05;;;;;;;-0.05;78.45;101282.45;1692956;83;21177;-71
2020/12/02 00:18:05;;;;;;;82.55;38.63;;;;;;;-0.08;78.48;101291.34;1709859;83;21135;-71
2020/12/02 00:20:32;;;;;;;79.53;37.60;;;;;;;-0.08;78.45;101290.48;1710427;83;22106;-71
2020/12/02 00:22:58;;;;;;;101.02;47.08;;;;;;;-0.06;78.51;101287.31;1710422;82;21191;-72
2020/12/02 00:25:25;;;;;;;81.35;38.02;;;;;;;-0.04;78.54;101285.47;1705992;83;21613;-71
2020/12/02 00:27:51;;;;;;;88.42;41.83;;;;;;;0.01;78.56;101292.61;1688277;83;21148;-72
2020/12/02 00:30:18;;;;;;;96.82;44.42;;;;;;;0.03;78.56;101290.77;1682770;85;21179;-71
2020/12/02 00:32:46;;;;;;;95.83;42.93;;;;;;;0.02;78.58;101290.38;1666695;85;21223;-72
2020/12/02 00:35:19;;;;;;;82.17;41.45;;;;;;;0.00;78.60;101287.01;1708690;83;21139;-72
2020/12/02 00:37:46;;;;;;;86.78;41.42;;;;;;;-0.02;78.63;101287.53;1710765;83;21180;-72
2020/12/02 00:40:13;;;;;;;90.70;41.98;;;;;;;0.00;78.68;101288.32;1711111;83;21140;-71
2020/12/02 00:42:39;;;;;;;92.20;42.67;;;;;;;-0.02;78.69;101286.22;1711236;83;21140;-72
2020/12/02 00:45:08;;;;;;;93.45;40.10;;;;;;;-0.02;78.69;101294.09;1711221;82;21219;-71
2020/12/02 00:47:34;;;;;;;82.78;40.75;;;;;;;-0.05;78.71;101285.08;1711094;82;21167;-71
2020/12/02 00:50:00;;;;;;;91.37;41.63;;;;;;;-0.06;78.71;101291.24;1711276;83;21191;-71
2020/12/02 00:52:27;;;;;;;91.72;43.33;;;;;;;-0.05;78.72;101296.42;1711178;83;21564;-71
2020/12/02 00:54:53;;;;;;;95.85;41.33;;;;;;;-0.04;78.75;101295.50;1710736;83;21203;-71
2020/12/02 00:57:27;;;;;;;87.92;39.83;;;;;;;0.01;78.79;101304.41;1711205;83;21216;-71
2020/12/02 00:59:55;;;;;;;90.80;44.10;;;;;;;0.00;78.79;101297.50;1673636;83;21156;-71
2020/12/02 01:02:27;;;;;;;86.78;40.40;;;;;;;0.06;78.79;101304.18;1721306;83;21128;-71
2020/12/02 01:04:54;;;;;;;105.55;45.25;;;;;;;0.08;78.81;101303.16;1720818;83;21152;-71
2020/12/02 01:07:20;;;;;;;80.42;37.80;;;;;;;0.03;78.82;101296.48;1721236;82;21637;-71
2020/12/02 01:09:46;;;;;;;80.55;38.28;;;;;;;0.02;78.82;101296.94;1720957;83;21196;-71
2020/12/02 01:12:15;;;;;;;81.53;37.80;;;;;;;0.00;78.82;101298.31;1721255;83;21176;-71
2020/12/02 01:14:42;;;;;;;65.27;30.77;;;;;;;0.02;78.85;101295.63;1721386;82;21641;-72
2020/12/02 01:17:09;;;;;;;315.40;114.00;;;;;;;0.00;78.84;101298.80;1721298;82;21841;-71
2020/12/02 01:19:38;;;;;;;122.15;52.67;;;;;;;-0.01;78.89;101294.48;1721258;83;21136;-71
2020/12/02 01:22:16;;;;;;;88.30;42.15;;;;;;;0.00;78.91;101298.80;1721172;83;22039;-71
2020/12/02 01:24:53;;;;;;;92.65;42.73;;;;;;;-0.02;78.90;101304.58;1721052;83;21153;-72
2020/12/02 01:27:39;;;;;;;77.40;38.28;;;;;;;-0.08;78.90;101307.53;1700420;83;21140;-71
2020/12/02 01:30:07;;;;;;;302.22;122.85;;;;;;;-0.13;78.91;101301.20;1721079;83;21180;-71
2020/12/02 01:32:34;;;;;;;89.77;39.90;;;;;;;-0.12;78.93;101305.98;1721143;83;21143;-72
2020/12/02 01:35:00;;;;;;;96.20;42.93;;;;;;;-0.19;78.95;101303.30;1721222;83;21660;-71
2020/12/02 01:37:36;;;;;;;79.12;37.80;;;;;;;-0.23;78.95;101312.24;1721202;82;21184;-71
2020/12/02 01:40:23;;;;;;;85.62;41.63;;;;;;;-0.26;78.95;101313.26;1721071;83;21164;-72
2020/12/02 01:42:55;;;;;;;76.17;36.65;;;;;;;-0.29;78.93;101310.80;1720969;83;21160;-71
2020/12/02 01:45:43;;;;;;;76.20;34.97;;;;;;;-0.26;78.98;101300.61;1815926;77;22597;-71
2020/12/02 01:48:49;;;;;;;82.33;36.85;;;;;;;-0.32;78.95;101308.80;1787728;80;21175;-71
2020/12/02 01:51:54;;;;;;;89.37;41.95;;;;;;;-0.33;78.99;101301.85;1776359;80;21211;-71
2020/12/02 01:54:44;;;;;;;248.62;73.17;;;;;;;-0.32;79.03;101304.87;1787528;79;21202;-71
2020/12/02 01:57:27;;;;;;;101.42;44.83;;;;;;;-0.33;79.03;101312.34;1788180;80;21199;-71
2020/12/02 02:00:14;;;;;;;101.00;42.90;;;;;;;-0.34;79.07;101304.94;1788046;80;21112;-71
2020/12/02 02:03:06;;;;;;;100.70;45.90;;;;;;;-0.35;79.11;101302.41;1788413;80;21120;-71
2020/12/02 02:05:58;;;;;;;93.75;40.88;;;;;;;-0.37;79.14;101295.92;1762453;80;21277;-71
2020/12/02 02:08:30;;;;;;;91.55;42.33;;;;;;;-0.36;79.16;101284.53;1720046;81;21541;-71
2020/12/02 02:10:56;;;;;;;90.07;41.33;;;;;;;-0.39;79.17;101283.84;1757001;81;21127;-71
2020/12/02 02:13:52;;;;;;;94.65;42.23;;;;;;;-0.42;79.20;101280.06;1756879;81;21119;-71
2020/12/02 02:16:33;;;;;;;78.72;36.80;;;;;;;-0.44;79.23;101276.66;1756821;81;21112;-71
2020/12/02 02:19:00;;;;;;;86.50;37.53;;;;;;;-0.45;79.24;101278.89;1756997;81;22157;-71
2020/12/02 02:21:32;;;;;;;90.50;39.80;;;;;;;-0.49;79.25;101272.14;1756883;81;21529;-71
2020/12/02 02:23:59;;;;;;;100.18;42.75;;;;;;;-0.51;79.26;101265.20;1757007;80;21132;-71
2020/12/02 02:26:45;;;;;;;99.03;45.50;;;;;;;-0.48;79.31;101268.57;1756820;81;21568;-71
2020/12/02 02:29:27;;;;;;;105.97;45.67;;;;;;;-0.51;79.33;101267.81;1756862;81;21142;-71
2020/12/02 02:32:17;;;;;;;94.42;42.30;;;;;;;-0.52;79.35;101260.87;1757065;81;21529;-71
2020/12/02 02:34:46;;;;;;;93.47;44.88;;;;;;;-0.55;79.38;101266.27;1756788;81;21615;-71
2020/12/02 02:37:13;;;;;;;96.80;44.88;;;;;;;-0.60;79.41;101268.27;1757155;81;28749;-71
2020/12/02 02:39:41;;;;;;;97.12;43.42;;;;;;;-0.62;79.46;101266.20;1756975;81;21166;-71
2020/12/02 02:42:36;;;;;;;92.17;44.45;;;;;;;-0.62;79.49;101262.27;1756701;81;21091;-71
2020/12/02 02:45:10;;;;;;;96.95;41.92;;;;;;;-0.61;79.50;101263.97;1758763;81;21273;-71
2020/12/02 02:47:37;;;;;;;101.22;44.10;;;;;;;-0.62;79.54;101266.66;1759852;81;21127;-71
2020/12/02 02:50:08;;;;;;;99.52;44.85;;;;;;;-0.67;79.53;101259.52;1759850;80;21563;-71
2020/12/02 02:52:35;;;;;;;98.90;46.53;;;;;;;-0.67;79.56;101264.26;1759846;81;21119;-71
2020/12/02 02:55:01;;;;;;;96.95;44.55;;;;;;;-0.70;79.56;101261.80;1759800;81;21585;-71
2020/12/02 02:57:27;;;;;;;98.87;42.60;;;;;;;-0.70;79.62;101265.73;1759404;81;21253;-71
2020/12/02 02:59:53;;;;;;;94.40;43.25;;;;;;;-0.71;79.63;101270.60;1759162;81;21167;-71
2020/12/02 03:02:20;;;;;;;87.55;39.33;;;;;;;-0.69;79.66;101268.73;1759404;81;21206;-71
2020/12/02 03:04:46;;;;;;;85.85;37.48;;;;;;;-0.67;79.66;101269.50;1759141;80;21131;-71
2020/12/02 03:07:15;;;;;;;98.62;43.38;;;;;;;-0.68;79.68;101267.83;1759417;81;21651;-71
2020/12/02 03:09:43;;;;;;;95.00;43.08;;;;;;;-0.70;79.70;101269.66;1759461;81;21259;-71
2020/12/02 03:12:11;;;;;;;98.75;44.40;;;;;;;-0.72;79.74;101270.66;1759025;81;21163;-71
2020/12/02 03:14:41;;;;;;;92.85;43.23;;;;;;;-0.76;79.79;101271.73;1759357;81;21056;-71
2020/12/02 03:17:07;;;;;;;91.65;40.38;;;;;;;-0.76;79.82;101269.97;1759295;81;21155;-70
2020/12/02 03:19:33;;;;;;;92.05;43.90;;;;;;;-0.81;79.83;101271.95;1759488;81;21162;-71
2020/12/02 03:22:02;;;;;;;94.45;43.42;;;;;;;-0.86;79.86;101271.36;1759294;81;22117;-71
2020/12/02 03:24:29;;;;;;;91.90;44.30;;;;;;;-0.86;79.87;101271.36;1759328;81;21123;-71
2020/12/02 03:26:55;;;;;;;96.20;42.78;;;;;;;-0.88;79.90;101270.57;1759227;80;21139;-71
2020/12/02 03:29:22;;;;;;;90.05;41.45;;;;;;;-0.88;79.93;101274.98;1759143;81;21179;-71
2020/12/02 03:31:48;;;;;;;90.87;40.17;;;;;;;-0.89;79.94;101280.67;1759428;81;21060;-71
2020/12/02 03:34:16;;;;;;;81.35;37.63;;;;;;;-0.89;79.96;101283.75;1759206;81;22122;-71
2020/12/02 03:36:42;;;;;;;86.92;37.75;;;;;;;-0.90;79.99;101278.97;1759397;81;21135;-71
2020/12/02 03:39:10;;;;;;;95.20;44.20;;;;;;;-0.90;80.01;101278.97;1759034;81;21576;-71
2020/12/02 03:41:38;;;;;;;88.03;43.85;;;;;;;-0.90;80.03;101280.28;1759147;81;21706;-71
2020/12/02 03:44:04;;;;;;;101.75;45.70;;;;;;;-0.90;80.08;101276.81;1758697;81;21128;-71
2020/12/02 03:46:31;;;;;;;98.58;42.90;;;;;;;-0.90;80.10;101280.73;1756324;81;21196;-71
2020/12/02 03:48:57;;;;;;;96.82;46.65;;;;;;;-0.92;80.14;101278.22;1726877;81;21119;-71
2020/12/02 03:51:23;;;;;;;90.07;41.30;;;;;;;-0.94;80.15;101278.73;1756351;81;21130;-71
2020/12/02 03:53:50;;;;;;;88.07;44.18;;;;;;;-0.96;80.18;101275.36;1756484;80;21167;-71
2020/12/02 03:56:16;;;;;;;87.15;40.52;;;;;;;-0.96;80.18;101277.13;1756169;81;21501;-71
2020/12/02 03:58:42;;;;;;;89.50;40.33;;;;;;;-0.97;80.19;101271.03;1756328;81;21191;-71
2020/12/02 04:01:08;;;;;;;77.92;36.73;;;;;;;-0.99;80.20;101272.89;1756246;81;21150;-71
2020/12/02 04:03:37;;;;;;;96.35;43.30;;;;;;;-1.00;80.25;101272.50;1756436;81;21123;-71
2020/12/02 04:06:07;;;;;;;174.10;64.22;;;;;;;-1.01;80.25;101269.48;1756221;80;21119;-71
2020/12/02 04:08:33;;;;;;;111.32;47.88;;;;;;;-1.00;80.28;101267.27;1756381;81;21157;-71
2020/12/02 04:11:00;;;;;;;96.30;44.40;;;;;;;-0.99;80.33;101266.81;1756368;81;21349;-71
2020/12/02 04:13:26;;;;;;;98.72;44.93;;;;;;;-1.02;80.34;101265.16;1756257;80;21139;-71
2020/12/02 04:15:52;;;;;;;93.17;41.98;;;;;;;-1.03;80.34;101266.11;1756381;81;21557;-71
2020/12/02 04:18:19;;;;;;;108.10;48.02;;;;;;;-1.06;80.38;101260.58;1756156;80;21548;-71
2020/12/02 04:20:46;;;;;;;99.60;44.25;;;;;;;-1.05;80.40;101260.08;1756347;81;21123;-71
2020/12/02 04:23:12;;;;;;;99.55;46.60;;;;;;;-1.06;80.42;101262.34;1756366;80;22237;-71
2020/12/02 04:25:39;;;;;;;99.92;48.00;;;;;;;-1.06;80.43;101263.19;1756269;80;21111;-71
2020/12/02 04:28:05;;;;;;;100.67;43.45;;;;;;;-1.05;80.47;101261.39;1756487;81;21115;-71
2020/12/02 04:30:31;;;;;;;89.95;42.05;;;;;;;-1.07;80.50;101264.56;1756070;81;21127;-71
2020/12/02 04:32:58;;;;;;;96.50;44.77;;;;;;;-1.09;80.52;101260.70;1756519;80;21072;-71
2020/12/02 04:35:24;;;;;;;92.42;44.75;;;;;;;-1.10;80.52;101264.72;1756224;81;21260;-71
2020/12/02 04:37:50;;;;;;;108.87;50.43;;;;;;;-1.11;80.54;101260.39;1756173;81;21171;-71
2020/12/02 04:40:27;;;;;;;92.88;42.60;;;;;;;-1.11;80.56;101260.39;1756200;81;21132;-71
2020/12/02 04:42:59;;;;;;;100.25;49.48;;;;;;;-1.13;80.58;101255.25;1755753;81;21152;-71
2020/12/02 04:45:29;;;;;;;104.72;47.60;;;;;;;-1.16;80.59;101253.25;1759404;81;21159;-71
2020/12/02 04:47:54;;;;;;;95.72;44.30;;;;;;;-1.17;80.63;101256.31;1671988;83;21277;-71
2020/12/02 04:50:25;;;;;;;105.30;45.67;;;;;;;-1.16;80.63;101253.25;1649014;84;21156;-71
2020/12/02 04:53:12;;;;;;;99.67;44.83;;;;;;;-1.17;80.65;101251.54;1697579;84;21625;-71
2020/12/02 04:55:41;;;;;;;99.47;46.15;;;;;;;-1.19;80.66;101258.59;1697566;84;21541;-71
2020/12/02 04:58:27;;;;;;;91.67;43.28;;;;;;;-1.21;80.67;101257.84;1697678;84;21188;-71
2020/12/02 05:00:54;;;;;;;109.07;46.75;;;;;;;-1.22;80.69;101256.14;1675518;84;21203;-71
2020/12/02 05:03:20;;;;;;;120.90;56.10;;;;;;;-1.23;80.74;101259.70;1697644;84;21160;-70
2020/12/02 05:05:46;;;;;;;103.38;44.73;;;;;;;-1.24;80.77;101262.77;1697553;84;21211;-70
2020/12/02 05:08:26;;;;;;;105.17;44.85;;;;;;;-1.26;80.80;101272.45;1697716;84;21171;-71
2020/12/02 05:10:53;;;;;;;98.35;46.00;;;;;;;-1.26;80.80;101270.28;1697610;84;21147;-70
2020/12/02 05:13:19;;;;;;;99.55;45.92;;;;;;;-1.28;80.82;101270.83;1697737;83;21224;-70
2020/12/02 05:15:46;;;;;;;98.12;45.80;;;;;;;-1.29;80.84;101279.59;1697656;84;21149;-70
2020/12/02 05:18:22;;;;;;;94.60;44.10;;;;;;;-1.30;80.86;101271.37;1697539;84;21589;-70
2020/12/02 05:21:05;;;;;;;100.18;46.37;;;;;;;-1.31;80.87;101276.22;1697646;84;21645;-70
2020/12/02 05:23:32;;;;;;;101.70;44.10;;;;;;;-1.34;80.88;101284.21;1671500;84;21175;-70
2020/12/02 05:25:58;;;;;;;103.60;47.03;;;;;;;-1.38;80.87;101276.12;1697355;83;21252;-70
2020/12/02 05:28:36;;;;;;;104.30;45.83;;;;;;;-1.39;80.91;101273.95;1697572;83;21160;-70
2020/12/02 05:31:07;;;;;;;109.45;47.98;;;;;;;-1.38;80.91;101271.73;1697183;84;21191;-70
2020/12/02 05:33:34;;;;;;;103.40;49.42;;;;;;;-1.39;80.94;101273.95;1728116;83;21611;-70
2020/12/02 05:36:20;;;;;;;106.17;50.12;;;;;;;-1.40;80.96;101263.55;1698150;84;21144;-70
2020/12/02 05:39:04;;;;;;;108.65;48.60;;;;;;;-1.40;81.00;101271.40;1722896;83;21214;-70
2020/12/02 05:41:30;;;;;;;106.80;49.18;;;;;;;-1.34;81.03;101273.75;1698252;84;21177;-70
2020/12/02 05:44:07;;;;;;;93.65;44.08;;;;;;;-1.36;81.04;101272.95;1703205;83;21172;-70
2020/12/02 05:46:44;;;;;;;95.42;46.70;;;;;;;-1.42;81.06;101279.34;1700315;83;21160;-70
2020/12/02 05:49:33;;;;;;;101.33;45.88;;;;;;;-1.47;81.07;101277.84;1700311;84;21129;-70
2020/12/02 05:51:59;;;;;;;124.58;55.52;;;;;;;-1.52;81.08;101278.93;1699495;83;21379;-70
2020/12/02 05:54:25;;;;;;;106.67;46.73;;;;;;;-1.54;81.10;101272.91;1700387;84;21172;-70
2020/12/02 05:56:52;;;;;;;116.93;52.15;;;;;;;-1.56;81.10;101281.75;1699997;83;21167;-70
2020/12/02 05:59:18;;;;;;;137.25;56.80;;;;;;;-1.60;81.11;101270.59;1700568;83;21248;-70
2020/12/02 06:01:45;;;;;;;102.85;47.88;;;;;;;-1.63;81.12;101277.27;1678493;83;21565;-70
2020/12/02 06:04:13;;;;;;;100.07;46.68;;;;;;;-1.66;81.14;101273.50;1670528;85;21849;-70
2020/12/02 06:06:40;;;;;;;97.30;43.70;;;;;;;-1.66;81.17;101277.42;1670637;85;21200;-70
2020/12/02 06:09:06;;;;;;;97.92;43.92;;;;;;;-1.69;81.19;101283.25;1670706;84;21587;-70
2020/12/02 06:11:35;;;;;;;163.05;89.65;;;;;;;-1.72;81.19;101276.38;1699986;84;21164;-70
2020/12/02 06:14:09;;;;;;;247.65;117.57;;;;;;;-1.76;81.21;101278.73;1700559;84;21196;-70
2020/12/02 06:16:42;;;;;;;140.82;68.15;;;;;;;-1.80;81.21;101277.20;1700571;84;22013;-70
2020/12/02 06:19:23;;;;;;;104.83;49.60;;;;;;;-1.82;81.24;101281.64;1699083;84;21199;-70
2020/12/02 06:21:59;;;;;;;116.95;53.28;;;;;;;-1.87;81.26;101284.94;1688176;83;21161;-70
2020/12/02 06:24:46;;;;;;;217.68;109.63;;;;;;;-1.89;81.29;101289.36;1696859;84;21170;-71
2020/12/02 06:27:27;;;;;;;188.82;72.90;;;;;;;-1.93;81.30;101277.34;1673439;84;21192;-71
2020/12/02 06:30:02;;;;;;;107.85;49.50;;;;;;;-1.95;81.31;101285.73;1691477;84;21175;-71
2020/12/02 06:32:28;;;;;;;110.57;54.83;;;;;;;-1.98;81.31;101286.33;1699188;84;21151;-72
2020/12/02 06:35:14;;;;;;;117.53;60.08;;;;;;;-2.00;81.34;101287.69;1701194;83;21180;-72
2020/12/02 06:37:40;;;;;;;104.78;48.95;;;;;;;-2.04;81.35;101279.59;1690780;83;21132;-71
2020/12/02 06:40:07;;;;;;;116.45;51.58;;;;;;;-2.08;81.34;101284.59;1701026;83;21558;-71
2020/12/02 06:42:39;;;;;;;112.83;46.00;;;;;;;-2.08;81.38;101288.51;1694154;84;21218;-71
2020/12/02 06:45:30;;;;;;;119.28;53.78;;;;;;;-2.09;81.39;101281.58;1696417;84;21152;-70
2020/12/02 06:48:02;;;;;;;129.82;52.73;;;;;;;-2.11;81.42;101286.86;1679470;85;21121;-71
2020/12/02 06:50:41;;;;;;;121.77;53.20;;;;;;;-2.10;81.43;101294.24;1779380;79;27501;-71
2020/12/02 06:53:17;;;;;;;119.28;51.88;;;;;;;-2.19;81.44;101292.90;1767397;79;20950;-70
2020/12/02 06:55:47;;;;;;;108.92;48.33;;;;;;;-2.18;81.45;101291.14;1765449;80;21994;-70
2020/12/02 06:58:18;;;;;;;112.52;48.95;;;;;;;-2.20;81.47;101294.26;1781460;79;21571;-70
2020/12/02 07:00:50;;;;;;;121.30;56.05;;;;;;;-2.22;81.46;101288.27;1758631;80;21105;-70
2020/12/02 07:03:38;;;;;;;116.45;48.73;;;;;;;-2.25;81.46;101283.19;1756563;80;21136;-70
2020/12/02 07:06:20;;;;;;;104.50;49.20;;;;;;;-2.25;81.48;101281.88;1752328;81;21076;-70
2020/12/02 07:08:52;;;;;;;104.10;46.02;;;;;;;-2.25;81.51;101285.80;1763457;80;21206;-70
2020/12/02 07:11:23;;;;;;;155.27;69.55;;;;;;;-2.25;81.52;101288.41;1755332;80;21243;-70
2020/12/02 07:13:53;;;;;;;145.45;65.00;;;;;;;-2.24;81.55;101282.24;1753992;81;21011;-70
2020/12/02 07:16:31;;;;;;;124.45;57.90;;;;;;;-2.23;81.57;101287.87;1755640;81;21156;-70
2020/12/02 07:19:08;;;;;;;129.12;60.63;;;;;;;-2.22;81.58;101274.75;1755058;80;21161;-70
2020/12/02 07:21:57;;;;;;;123.80;59.05;;;;;;;-2.06;81.54;101277.52;1755384;81;21597;-71
2020/12/02 07:24:40;;;;;;;107.65;49.65;;;;;;;-1.94;81.50;101274.37;1755205;81;21168;-71
2020/12/02 07:27:07;;;;;;;97.47;47.70;;;;;;;-1.96;81.49;101264.42;1755304;80;21124;-71
2020/12/02 07:29:33;;;;;;;111.65;51.30;;;;;;;-2.05;81.53;101267.47;1755438;81;21159;-71
2020/12/02 07:32:07;;;;;;;104.72;44.83;;;;;;;-2.04;81.54;101264.77;1755533;81;21636;-70
2020/12/02 07:34:33;;;;;;;107.63;47.60;;;;;;;-2.03;81.55;101266.92;1754454;81;23349;-71
2020/12/02 07:37:08;;;;;;;97.62;42.53;;;;;;;-2.04;81.50;101262.16;1755438;81;21150;-71
2020/12/02 07:39:35;;;;;;;107.25;47.75;;;;;;;-2.09;81.52;101263.29;1755371;81;21602;-71
2020/12/02 07:42:20;;;;;;;105.80;43.92;;;;;;;-2.11;81.58;101259.91;1755393;81;21175;-71
2020/12/02 07:44:55;;;;;;;104.25;48.05;;;;;;;-2.11;81.59;101267.75;1738409;81;21136;-71
2020/12/02 07:47:43;;;;;;;105.55;47.53;;;;;;;-2.01;81.62;101258.58;1852372;77;28246;-71
2020/12/02 07:50:46;;;;;;;115.45;51.48;;;;;;;-2.04;81.65;101262.60;1823506;78;21195;-71
2020/12/02 07:53:42;;;;;;;104.07;44.33;;;;;;;-2.01;81.64;101258.58;1824322;78;21577;-71
2020/12/02 07:56:22;;;;;;;112.52;50.58;;;;;;;-2.02;81.67;101262.95;1824344;78;21025;-71
2020/12/02 07:58:49;;;;;;;103.25;45.55;;;;;;;-1.99;81.68;101260.65;1824510;78;20946;-71
2020/12/02 08:01:38;;;;;;;119.05;51.53;;;;;;;-1.99;81.69;101255.42;1824051;78;21548;-71
2020/12/02 08:04:25;;;;;;;105.10;48.17;;;;;;;-1.97;81.71;101250.95;1824632;78;21508;-71
2020/12/02 08:07:05;;;;;;;107.40;50.35;;;;;;;-1.92;81.71;101252.92;1793150;78;22129;-71
2020/12/02 08:09:37;;;;;;;;;;;;;;;-1.88;81.72;101248.40;1785680;80;21601;-71
2020/12/02 08:12:11;;;;;;;121.05;53.80;;;;;;;-1.86;81.73;101244.79;1782796;80;20222;-71
2020/12/02 08:14:41;;;;;;;252.43;95.03;;;;;;;-1.82;81.73;101245.04;1782163;80;21582;-71
2020/12/02 08:17:21;;;;;;;288.80;109.22;;;;;;;-1.78;81.72;101245.30;1783367;79;21561;-71
2020/12/02 08:19:54;;;;;;;144.30;61.02;;;;;;;-1.74;81.72;101248.61;1783111;80;26026;-71
2020/12/02 08:22:38;;;;;;;329.95;120.92;;;;;;;-1.67;81.74;101239.56;1783014;80;21160;-71
2020/12/02 08:25:30;;;;;;;330.40;137.55;;;;;;;-1.64;81.75;101239.41;1778582;80;21557;-71
2020/12/02 08:28:02;;;;;;;272.33;112.57;;;;;;;-1.62;81.72;101238.41;1752365;80;21123;-71
2020/12/02 08:30:30;;;;;;;208.13;87.17;;;;;;;-1.59;81.73;101236.14;1782684;80;21581;-71
2020/12/02 08:33:15;;;;;;;212.75;91.12;;;;;;;-1.58;81.71;101242.58;1783089;80;21977;-71
2020/12/02 08:35:49;;;;;;;203.25;82.88;;;;;;;-1.59;81.70;101239.60;1782788;80;21116;-71
2020/12/02 08:38:30;;;;;;;252.65;102.42;;;;;;;-1.57;81.69;101232.98;1783037;80;21597;-71
2020/12/02 08:40:58;;;;;;;187.27;74.90;;;;;;;-1.49;81.69;101231.31;1782059;80;21568;-71
2020/12/02 08:43:37;;;;;;;117.82;51.90;;;;;;;-1.42;81.67;101248.41;1783300;80;21533;-71
2020/12/02 08:46:15;;;;;;;145.17;66.45;;;;;;;-1.44;81.68;101245.03;1775518;80;21214;-71
2020/12/02 08:48:44;;;;;;;128.60;56.95;;;;;;;-1.44;81.68;101247.64;1754906;81;21148;-71
2020/12/02 08:51:14;;;;;;;132.20;59.88;;;;;;;-1.45;81.67;101244.63;1755062;81;21108;-71
2020/12/02 08:53:42;;;;;;;115.10;54.27;;;;;;;-1.45;81.65;101239.41;1756081;80;21167;-71
2020/12/02 08:56:30;;;;;;;119.20;55.85;;;;;;;-1.41;81.64;101240.95;1745981;79;21189;-71
2020/12/02 08:58:56;;;;;;;134.43;56.58;;;;;;;-1.37;81.59;101239.41;1746556;81;21626;-71
2020/12/02 09:01:22;;;;;;;130.55;57.20;;;;;;;-1.34;81.60;101233.20;1744915;81;21161;-70
2020/12/02 09:03:49;;;;;;;129.75;57.85;;;;;;;-1.31;81.58;101234.36;1745666;81;21212;-71
2020/12/02 09:06:17;;;;;;;121.37;54.75;;;;;;;-1.30;81.56;101226.91;1744849;81;21164;-71
2020/12/02 09:08:44;;;;;;;125.67;55.85;;;;;;;-1.26;81.54;101230.58;1746318;81;21228;-71
2020/12/02 09:11:11;;;;;;;135.75;62.10;;;;;;;-1.25;81.51;101228.36;1745507;81;21275;-71
2020/12/02 09:13:38;;;;;;;115.85;54.08;;;;;;;-1.20;81.53;101232.92;1748199;80;21172;-71
2020/12/02 09:16:05;;;;;;;112.52;52.80;;;;;;;-1.19;81.49;101232.44;1743275;81;21160;-71
2020/12/02 09:18:31;;;;;;;170.20;67.30;;;;;;;-1.12;81.49;101231.21;1743251;81;21215;-71
2020/12/02 09:20:57;;;;;;;151.07;66.87;;;;;;;-1.08;81.48;101223.59;1741920;81;21102;-71
2020/12/02 09:23:24;;;;;;;284.62;101.42;;;;;;;-1.01;81.47;101219.75;1741636;81;22022;-71
2020/12/02 09:25:50;;;;;;;604.45;183.32;;;;;;;-0.92;81.44;101210.61;1744268;81;21223;-71
2020/12/02 09:28:17;;;;;;;247.75;84.97;;;;;;;-0.84;81.43;101217.13;1748766;81;21187;-71
2020/12/02 09:30:44;;;;;;;184.32;71.07;;;;;;;-0.78;81.40;101210.76;1745495;81;21161;-71
2020/12/02 09:33:15;;;;;;;144.25;61.90;;;;;;;-0.69;81.38;101215.05;1747536;81;21756;-71
2020/12/02 09:35:43;;;;;;;114.67;56.13;;;;;;;-0.65;81.35;101206.13;1745506;81;21189;-71
2020/12/02 09:38:29;;;;;;;118.30;54.30;;;;;;;-0.57;81.35;101212.28;1722555;81;21888;-71
2020/12/02 09:41:04;;;;;;;183.95;74.77;;;;;;;-0.46;81.34;101208.64;1740171;81;21181;-71
2020/12/02 09:43:52;;;;;;;262.65;96.30;;;;;;;-0.39;81.28;101203.92;1743920;81;21653;-71
2020/12/02 09:46:21;;;;;;;130.47;57.63;;;;;;;-0.34;81.28;101205.82;1751212;80;21152;-70
2020/12/02 09:48:51;;;;;;;113.35;52.10;;;;;;;-0.28;81.25;101201.09;1755883;80;21213;-70
2020/12/02 09:51:26;;;;;;;109.20;50.78;;;;;;;-0.29;81.18;101201.20;1706270;80;21191;-70
2020/12/02 09:53:55;;;;;;;162.75;65.52;;;;;;;-0.31;81.17;101195.17;1762973;80;21176;-70
2020/12/02 09:56:27;;;;;;;197.28;68.47;;;;;;;-0.32;81.12;101196.97;1760830;80;21119;-70
2020/12/02 09:58:58;;;;;;;263.80;100.02;;;;;;;-0.36;81.06;101193.28;1768028;80;21584;-70
2020/12/02 10:01:36;;;;;;;208.30;79.22;;;;;;;-0.41;81.01;101189.58;1757227;80;21218;-70
2020/12/02 10:04:29;;;;;;;221.57;88.17;;;;;;;-0.41;80.96;101189.58;1757530;80;21160;-71
2020/12/02 10:07:07;;;;;;;156.57;71.30;;;;;;;-0.40;80.89;101188.66;1761281;80;21167;-71
2020/12/02 10:09:45;;;;;;;127.80;55.50;;;;;;;-0.33;80.84;101183.94;1766630;79;21263;-71
2020/12/02 10:12:50;;;;;;;113.08;52.15;;;;;;;-0.29;80.81;101182.85;1757393;79;21231;-71
2020/12/02 10:15:34;;;;;;;110.90;52.53;;;;;;;-0.26;80.75;101183.53;1758547;80;21260;-71
2020/12/02 10:18:22;;;;;;;130.95;55.92;;;;;;;-0.22;80.71;101178.98;1758830;80;21211;-71
2020/12/02 10:20:49;;;;;;;194.28;77.55;;;;;;;-0.16;80.66;101181.26;1760844;80;21155;-71
2020/12/02 10:23:42;;;;;;;168.72;74.27;;;;;;;-0.14;80.61;101171.55;1758429;80;21222;-71
2020/12/02 10:26:41;;;;;;;130.75;57.67;;;;;;;-0.11;80.55;101171.39;1726132;80;21164;-71
2020/12/02 10:29:44;;;;;;;129.68;59.35;;;;;;;-0.03;80.48;101164.78;1765489;80;21596;-71
2020/12/02 10:32:32;;;;;;;112.42;49.95;;;;;;;0.00;80.42;101161.98;1765526;80;21199;-71
2020/12/02 10:34:58;;;;;;;133.80;62.48;;;;;;;0.06;80.35;101153.41;1764301;80;21144;-70
2020/12/02 10:37:34;;;;;;;136.88;61.40;;;;;;;0.11;80.31;101152.22;1764418;80;21136;-71
2020/12/02 10:40:00;;;;;;;138.50;63.45;;;;;;;0.16;80.25;101152.82;1757798;80;21617;-71
2020/12/02 10:43:07;;;;;;;108.07;52.83;;;;;;;0.20;80.22;101150.41;1761437;80;21622;-71
2020/12/02 10:45:33;;;;;;;116.88;56.18;;;;;;;0.25;80.18;101150.98;1762014;80;21159;-71
2020/12/02 10:48:49;;;;;;;98.33;47.75;;;;;;;0.26;80.08;101148.75;1764452;80;21196;-71
2020/12/02 10:51:16;;;;;;;118.28;52.33;;;;;;;0.31;80.02;101141.94;1771146;80;21571;-71
2020/12/02 10:53:43;;;;;;;113.00;52.05;;;;;;;0.31;79.96;101132.30;1769397;80;21577;-71
2020/12/02 10:56:09;;;;;;;105.65;51.75;;;;;;;0.37;79.91;101129.32;1771357;80;21269;-70
2020/12/02 10:58:36;;;;;;;109.27;52.95;;;;;;;0.39;79.84;101127.44;1771055;80;21256;-71
2020/12/02 11:01:07;;;;;;;107.32;51.77;;;;;;;0.43;79.78;101128.96;1771284;80;21182;-70
2020/12/02 11:03:36;;;;;;;113.17;52.17;;;;;;;0.42;79.74;101125.95;1774599;79;21151;-70
2020/12/02 11:06:32;;;;;;;106.80;54.45;;;;;;;0.47;79.70;101121.77;1762096;80;21174;-71
2020/12/02 11:09:40;;;;;;;114.88;55.98;;;;;;;0.52;79.65;101125.44;1771022;80;21617;-71
2020/12/02 11:12:38;;;;;;;126.00;56.65;;;;;;;0.59;79.58;101125.00;1778007;80;21170;-70
2020/12/02 11:15:19;;;;;;;113.35;53.80;;;;;;;0.59;79.53;101120.22;1786853;80;21137;-71
2020/12/02 11:17:57;;;;;;;113.57;54.23;;;;;;;0.55;79.41;101118.70;1786476;80;21636;-70
2020/12/02 11:20:47;;;;;;;110.48;53.28;;;;;;;0.61;79.38;101113.09;1783851;80;21632;-71
2020/12/02 11:23:28;;;;;;;106.67;53.15;;;;;;;0.65;79.33;101107.58;1778477;80;21254;-71
2020/12/02 11:26:14;;;;;;;114.95;54.20;;;;;;;0.65;79.26;101101.48;1787826;80;21179;-71
2020/12/02 11:28:42;;;;;;;101.75;47.40;;;;;;;0.64;79.19;101095.84;1777112;80;21171;-71
2020/12/02 11:31:23;;;;;;;99.85;50.50;;;;;;;0.64;79.13;101094.53;1767272;81;21632;-71
2020/12/02 11:34:40;;;;;;;107.07;52.55;;;;;;;0.67;79.06;101089.13;1852140;77;23351;-71
2020/12/02 11:37:14;;;;;;;115.47;52.58;;;;;;;0.60;78.99;101087.80;1824311;78;21073;-72